San Carlos, CA

5:42 AM PDT on September 20, 2014 (GMT -0700)
San Francisco International | Change Station
CLOSE
Current Station
Airport
Location: San Francisco,
Elevation: 16 ft
Nearby Weather Stations

Elev 16 ft 37.62 °N, 122.37 °W | Updated 46 minutes ago

Overcast
Overcast
64 °F
Feels Like 64 °F
N
5
Wind Variable Wind from West

Today
High -- | Low -- °F
--% Chance of Precip.
Yesterday
High -- | Low -- °F
Precip. -- in
6:55 AM 7:08 PM
Waning Crescent, 12% visible
Pressure 29.89 in
Visibility 10.0 miles
Clouds Few 600 ft
Overcast 800 ft
Dew Point 61 °F
Humidity 90%
Rainfall 0.00 in
Snow Depth 0 in , 0 in , 1 in
UV 0 out of 12
Pollen 4.00 out of 12
Air Quality Not available.
Flu Activity Not available.
METAR KSFO 201156Z 28004KT 10SM FEW006 OVC008 18/16 A2989 RMK AO2 SLP121 T01780161 10183 20178 55001 $

More Conditions Fewer Conditions

Pressure 29.89 in
Visibility 10.0 miles
Clouds Few 600 ft
Overcast 800 ft
Dew Point 61 °F
Humidity 90%
Rainfall 0.00 in
Snow Depth 0 in , 0 in , 1 in
UV 0 out of 12
Pollen 4.00 out of 12
Air Quality Not available.
Flu Activity Not available.
METAR KSFO 201156Z 28004KT 10SM FEW006 OVC008 18/16 A2989 RMK AO2 SLP121 T01780161 10183 20178 55001 $

More Conditions Fewer Conditions

10-Day Weather Forecast

Almanac

Astronomy

Sep. 20, 2014 Rise Set
Actual Time 6:55 AM PDT 7:08 PM PDT
Civil Twilight 6:29 AM PDT 7:35 PM PDT
Nautical Twilight 5:58 AM PDT 8:05 PM PDT
Astronomical Twilight 5:27 AM PDT 8:36 PM PDT
Moon 3:42 AM PDT 5:12 PM PDT
Length of Visible Light 13h 05m
Length of Day
12h 13m
Tomorrow will be 2m 23s shorter.
Waning Crescent, 12% of the Moon is Illuminated
Today
Waning Crescent
Sep 24
New
Oct 1
First Quarter
Oct 8
Full
Oct 15
Last Quarter

Today's Extremes

State Highs State Lows

Community

WunderPhotos

Upload Photos

1,754,837 photos uploaded!

Nearby

Air Quality

  Air Quality AQ Index Pollutant
Yesterday Good
PM2.5
Yesterday Good
OZONE
Saturday Moderate
PM2.5
Sunday Moderate
PM2.5
Monday Good
PM2.5
Tuesday Good
PM2.5
Wednesday Good
OZONE

Snow Depth

Station Depth Elevation
Monitor Pass 0 in 8350 ft
Tahoe City Cross 0 in 6750 ft
Summit Meadow 1 in 9122 ft
Rubicon #2 0 in 7500 ft
Leavitt Meadows 1 in 7200 ft

Earthquake Activity

City Distance Mag. Time & Date
Livermore, California 32 miles 2.6 3:37 AM PDT
2014-09-19
The Geysers, California 90 miles 2.5 11:29 PM PDT
2014-09-17
Minimum magnitude displayed is 2.5.

Coastal Water Temperatures

Place Temperature
No Stations Reporting

Nearby Weather Stations